Weather observations for the past three days for
Estherville, Estherville Municipal Airport
Imperial (Metric)
Date Time (cdt) Wind (mph) Vis. (mi.) Weather Sky Cond. Temperature (ºF) Relative Humidity Wind Chill (°F) Heat Index (°F) Pressure Precipitation (in)
Air Dwpt 6 hour altimeter (in) sea level (mb) 1 hr 3 hr 6 hr
Max. Min.
03 23:49 SW 8 10.00 Fair CLR 53.1 30.9 43% 29.66 1004.3
03 22:49 SW 8 10.00 Fair CLR 54 30 40% 29.69 1005.3
03 21:49 SW 9 10.00 Fair CLR 55 28.9 37% 29.72 1006.2
03 20:49 W 10 10.00 Fair CLR 60.1 28.9 31% 29.71 1005.9
03 19:49 W 9 10.00 Fair CLR 69.1 26.1 20% 29.71 1005.9
03 18:49 W 12 G 22 10.00 Fair CLR 72 27 73 68 19% 29.72 1006.1
03 17:49 NW 7 10.00 Fair CLR 71.1 28.9 21% 29.73 1006.7
03 16:49 NW 20 G 30 10.00 Fair CLR 72 26.1 18% 29.75 1007.2
03 15:49 NW 21 G 28 10.00 Fair and Breezy CLR 71.1 30.9 23% 29.77 1007.8
03 14:49 NW 18 G 28 10.00 Fair CLR 71.1 30.9 23% 29.79 1008.3
03 12:49 N 23 G 31 10.00 Fair and Breezy CLR 68 32 68 51.1 26% 29.81 1009.1
03 11:49 NW 24 G 32 10.00 Fair and Breezy CLR 66.9 34 30% 29.82 1009.4
03 10:49 N 28 G 38 10.00 Fair and Windy CLR 64.9 34 32% 29.81 1009.3
03 09:49 N 23 G 35 10.00 Fair and Breezy CLR 61 35.1 38% 29.8 1009.2
03 08:49 NW 28 G 35 10.00 Fair and Windy CLR 57.9 34 41% 29.79 1008.7
03 07:49 NW 18 G 30 10.00 Fair CLR 54 35.1 49% 29.77 1007.8
03 06:49 NW 15 10.00 Fair CLR 51.1 34 57 48 52% 29.74 1006.9
03 05:49 W 12 10.00 Fair CLR 48.9 30.9 50% 45 29.72 1006.5
03 04:49 SW 14 10.00 Fair CLR 52 30 43% 29.73 1006.5
03 03:49 W 15 10.00 Mostly Cloudy BKN120 54 28.9 38% 29.74 1007.0
03 02:49 SW 17 10.00 Fair CLR 55.9 28.9 36% 29.74 1007.0
03 01:49 S 16 10.00 A Few Clouds FEW120 54 28.9 38% 29.77 1007.9
03 00:49 S 17 10.00 Overcast OVC110 57 28 64.9 54 33% 29.79 1008.9
02 23:49 S 15 10.00 Overcast OVC100 55.9 28.9 36% 29.82 1009.7
02 22:49 S 13 10.00 Overcast OVC100 55.9 30 37% 29.85 1010.7
02 21:49 S 12 10.00 Fair CLR 55 30 38% 29.86 1011.3
02 19:49 SW 14 10.00 Mostly Cloudy BKN110 64 27 25% 29.89 1012.3
02 18:49 SW 15 10.00 Overcast OVC110 64.9 27 66.9 57.9 24% 29.9 1013.0
02 17:49 SW 15 10.00 A Few Clouds FEW120 66 27 23% 29.93 1013.9
02 16:49 W 13 G 23 10.00 Fair CLR 66 28 24% 29.94 1014.4
02 15:49 W 15 G 26 10.00 Fair CLR 64.9 27 24% 29.98 1015.5
02 14:49 W 8 10.00 Fair CLR 63 27 26% 30 1016.6
02 13:49 W 10 10.00 Fair CLR 62.1 27 26% 30.03 1017.5
02 12:49 W 9 G 22 10.00 Fair CLR 59 25 59 33.1 27% 30.06 1018.6
02 11:49 W 8 G 17 10.00 Fair CLR 55.9 23 28% 30.08 1019.3
02 10:49 W 10 G 18 10.00 Fair CLR 53.1 23 31% 30.1 1020.1
02 09:49 SW 15 10.00 Fair CLR 52 25 35% 30.11 1020.3
02 08:49 W 12 10.00 Fair CLR 48 27 44% 44 30.13 1020.8
02 07:49 W 7 10.00 Fair CLR 43 27 53% 39 30.13 1020.8
02 06:49 W 8 10.00 Fair CLR 33.1 25 34 28.9 72% 27 30.12 1020.8
02 05:49 W 6 10.00 Fair CLR 30 24.1 79% 25 30.12 1021.0
02 04:49 W 7 10.00 Fair CLR 32 26.1 79% 26 30.12 1020.8
02 03:49 W 7 10.00 Fair CLR 30.9 25 79% 25 30.11 1020.7
02 02:49 W 7 10.00 Fair CLR 30.9 25 79% 25 30.11 1020.6
02 01:49 W 5 10.00 Fair CLR 32 25 75% 28 30.12 1021.0
02 00:49 W 6 10.00 Fair CLR 33.1 25 52 33.1 72% 28 30.13 1021.1
01 23:49 W 6 10.00 Fair CLR 35.1 24.1 64% 31 30.12 1020.9
01 22:49 NW 5 10.00 Fair CLR 36 23 59% 33 30.12 1020.8
01 21:49 N 7 10.00 Fair CLR 42.1 24.1 49% 38 30.12 1020.6
01 20:49 N 7 10.00 Fair CLR 43 25 49% 39 30.1 1020.1
01 19:49 N 10 10.00 Mostly Cloudy BKN070 48 23 37% 44 30.08 1019.5
01 18:49 N 15 10.00 Mostly Cloudy BKN070 52 24.1 54 48.9 34% 30.08 1019.3
01 17:49 NW 13 10.00 Fair CLR 50 24.1 36% 46 30.07 1019.2
01 16:49 NE 12 10.00 Mostly Cloudy BKN065 53.1 26.1 35% 30.07 1018.8
01 15:49 N 12 10.00 Overcast OVC070 50 24.1 36% 46 30.07 1019.2
01 14:49 N 12 10.00 Mostly Cloudy BKN065 51.1 26.1 38% 30.08 1019.2
01 13:49 N 12 G 20 10.00 Mostly Cloudy BKN070 50 25 38% 46 30.08 1019.2
01 12:49 N 12 G 20 10.00 Mostly Cloudy BKN060 50 28 51.1 35.1 43% 46 30.08 1019.3
01 11:49 N 12 10.00 Mostly Cloudy BKN043 BKN060 48 28.9 48% 44 30.08 1019.2
01 10:49 N 15 10.00 Mostly Cloudy SCT046 BKN065 48 30.9 52% 43 30.07 1018.9
01 09:49 N 14 10.00 Mostly Cloudy BKN060 46 34 63% 40 30.07 1018.9
01 08:49 NW 12 10.00 Fair CLR 42.1 34 73% 36 30.06 1018.8
01 07:49 NW 12 10.00 Fair CLR 39 35.1 86% 32 30.06 1018.6
01 06:49 NW 7 8.00 A Few Clouds FEW070 35.1 33.1 41 33.1 93% 30 30.04 1018.0
01 05:49 NW 7 10.00 A Few Clouds FEW085 35.1 32 89% 30 30.03 1017.7
01 04:49 N 5 10.00 Overcast BKN080 OVC100 37.9 34 86% 35 30.03 1017.3
01 03:49 NW 7 10.00 Overcast OVC100 37.9 35.1 89% 33 30.03 1017.5
01 02:49 NW 7 10.00 Overcast SCT085 OVC110 39 35.1 86% 35 30.03 1017.6
01 01:49 NW 7 10.00 Mostly Cloudy FEW047 SCT060 BKN075 39.9 35.1 83% 36 30.04 1017.8
01 00:49 W 6 10.00 Partly Cloudy SCT041 SCT080 39 35.1 52 39 86% 35 30.03 1017.8
Date Time (cdt) Wind (mph) Vis. (mi.) Weather Sky Cond. Air Dwpt Max. Min. Relative Humidity Wind Chill (°F) Heat Index (°F) altimeter (in) sea level (mb) 1 hr 3 hr 6 hr
6 hour
Temperature (ºF) Pressure Precipitation (in)